Turnhout, Belgium
Current Conditions -  °F | °C
As of 5:25 PM on Wednesday 26 Nov 2014 (Local Time) from EHGR Reporting Station
Haze Haze  
Wind Chill: 38°   Ceiling: 1000
Heat Index: 43°   Visibility: 4mi
Dew Point: 41°   Wind: 8mph
Humidity: 93%   Direction: 120°ESE
Pressure: 29.85"   Gusts: NA
Location:  51.32°N, 4.94°E
Report Text: EHGR 261625Z AUTO 12007KT 6000 BR FEW009 OVC010 06/05 Q1011 GRN
Loading
Personal Weather Stations






























Interactive Weather Map New forecast layout! Learn more

10-Day Weather Forecast

Advertisements
Track Severe Weather on mobile